sensor_id;sensor_type;location;lat;lon;timestamp;pressure;altitude;pressure_sealevel;temperature;humidity
34065;BME280;20339;49.754;20.158;2023-04-23T00:01:41;96351.75;;;8.39;56.41
34065;BME280;20339;49.754;20.158;2023-04-23T00:04:16;96352.52;;;8.46;56.16
34065;BME280;20339;49.754;20.158;2023-04-23T00:06:50;96353.55;;;8.65;56.19
34065;BME280;20339;49.754;20.158;2023-04-23T00:09:25;96351.42;;;8.95;55.94
34065;BME280;20339;49.754;20.158;2023-04-23T00:12:00;96346.71;;;9.29;55.52
34065;BME280;20339;49.754;20.158;2023-04-23T00:14:32;96351.77;;;9.45;55.12
34065;BME280;20339;49.754;20.158;2023-04-23T00:17:05;96347.11;;;9.47;54.78
34065;BME280;20339;49.754;20.158;2023-04-23T00:19:37;96344.13;;;9.54;54.45
34065;BME280;20339;49.754;20.158;2023-04-23T00:22:14;96350.48;;;9.66;54.24
34065;BME280;20339;49.754;20.158;2023-04-23T00:24:45;96347.95;;;9.71;53.78
34065;BME280;20339;49.754;20.158;2023-04-23T00:27:16;96351.49;;;9.78;53.58
34065;BME280;20339;49.754;20.158;2023-04-23T00:29:49;96351.17;;;9.84;53.31
34065;BME280;20339;49.754;20.158;2023-04-23T00:32:23;96350.08;;;9.93;52.85
34065;BME280;20339;49.754;20.158;2023-04-23T00:34:56;96349.05;;;10.06;52.41
34065;BME280;20339;49.754;20.158;2023-04-23T00:37:27;96351.09;;;10.14;52.27
34065;BME280;20339;49.754;20.158;2023-04-23T00:39:58;96349.67;;;10.07;52.37
34065;BME280;20339;49.754;20.158;2023-04-23T00:42:29;96352.94;;;10.04;52.31
34065;BME280;20339;49.754;20.158;2023-04-23T00:45:04;96349.53;;;10.09;52.02
34065;BME280;20339;49.754;20.158;2023-04-23T00:47:37;96351.05;;;10.17;52.15
34065;BME280;20339;49.754;20.158;2023-04-23T00:50:10;96352.27;;;10.10;52.03
34065;BME280;20339;49.754;20.158;2023-04-23T00:52:44;96348.17;;;10.08;51.92
34065;BME280;20339;49.754;20.158;2023-04-23T00:55:15;96348.11;;;10.05;51.99
34065;BME280;20339;49.754;20.158;2023-04-23T00:57:51;96343.73;;;10.04;51.93
34065;BME280;20339;49.754;20.158;2023-04-23T01:00:24;96344.95;;;10.07;51.99
34065;BME280;20339;49.754;20.158;2023-04-23T01:02:55;96344.74;;;10.07;52.00
34065;BME280;20339;49.754;20.158;2023-04-23T01:05:26;96343.05;;;10.06;51.97
34065;BME280;20339;49.754;20.158;2023-04-23T01:07:57;96344.42;;;10.07;51.90
34065;BME280;20339;49.754;20.158;2023-04-23T01:10:28;96341.65;;;10.08;51.90
34065;BME280;20339;49.754;20.158;2023-04-23T01:13:01;96342.00;;;10.06;51.91
34065;BME280;20339;49.754;20.158;2023-04-23T01:15:32;96337.52;;;10.04;51.92
34065;BME280;20339;49.754;20.158;2023-04-23T01:18:05;96342.20;;;10.07;51.81
34065;BME280;20339;49.754;20.158;2023-04-23T01:20:37;96342.45;;;10.04;51.99
34065;BME280;20339;49.754;20.158;2023-04-23T01:23:09;96343.64;;;10.00;52.04
34065;BME280;20339;49.754;20.158;2023-04-23T01:25:42;96341.63;;;9.95;52.03
34065;BME280;20339;49.754;20.158;2023-04-23T01:28:15;96341.66;;;9.87;52.33
34065;BME280;20339;49.754;20.158;2023-04-23T01:30:48;96344.74;;;9.80;52.45
34065;BME280;20339;49.754;20.158;2023-04-23T01:33:21;96341.56;;;9.76;52.60
34065;BME280;20339;49.754;20.158;2023-04-23T01:35:53;96339.88;;;9.79;52.71
34065;BME280;20339;49.754;20.158;2023-04-23T01:38:26;96341.63;;;9.80;52.77
34065;BME280;20339;49.754;20.158;2023-04-23T01:40:58;96341.44;;;9.81;52.81
34065;BME280;20339;49.754;20.158;2023-04-23T01:43:31;96342.26;;;9.85;52.75
34065;BME280;20339;49.754;20.158;2023-04-23T01:46:03;96346.17;;;9.80;52.99
34065;BME280;20339;49.754;20.158;2023-04-23T01:48:34;96345.49;;;9.75;53.18
34065;BME280;20339;49.754;20.158;2023-04-23T01:51:09;96345.30;;;9.66;53.36
34065;BME280;20339;49.754;20.158;2023-04-23T01:53:40;96344.70;;;9.63;53.39
34065;BME280;20339;49.754;20.158;2023-04-23T01:56:11;96346.46;;;9.66;53.58
34065;BME280;20339;49.754;20.158;2023-04-23T01:58:45;96346.56;;;9.66;53.46
34065;BME280;20339;49.754;20.158;2023-04-23T02:01:15;96344.75;;;9.68;53.83
34065;BME280;20339;49.754;20.158;2023-04-23T02:03:46;96347.59;;;9.59;53.88
34065;BME280;20339;49.754;20.158;2023-04-23T02:06:19;96347.38;;;9.56;54.10
34065;BME280;20339;49.754;20.158;2023-04-23T02:08:49;96347.54;;;9.51;54.20
34065;BME280;20339;49.754;20.158;2023-04-23T02:11:20;96349.13;;;9.51;54.44
34065;BME280;20339;49.754;20.158;2023-04-23T02:13:54;96348.89;;;9.48;54.37
34065;BME280;20339;49.754;20.158;2023-04-23T02:16:25;96351.66;;;9.47;54.42
34065;BME280;20339;49.754;20.158;2023-04-23T02:18:57;96348.83;;;9.43;54.63
34065;BME280;20339;49.754;20.158;2023-04-23T02:21:30;96346.23;;;9.41;54.69
34065;BME280;20339;49.754;20.158;2023-04-23T02:24:01;96342.53;;;9.41;54.77
34065;BME280;20339;49.754;20.158;2023-04-23T02:26:33;96342.02;;;9.39;54.76
34065;BME280;20339;49.754;20.158;2023-04-23T02:29:04;96342.46;;;9.37;54.78
34065;BME280;20339;49.754;20.158;2023-04-23T02:31:35;96339.20;;;9.35;55.01
34065;BME280;20339;49.754;20.158;2023-04-23T02:34:06;96338.39;;;9.32;55.03
34065;BME280;20339;49.754;20.158;2023-04-23T02:36:37;96339.19;;;9.31;55.19
34065;BME280;20339;49.754;20.158;2023-04-23T02:39:08;96340.14;;;9.29;55.27
34065;BME280;20339;49.754;20.158;2023-04-23T02:41:39;96343.42;;;9.31;55.13
34065;BME280;20339;49.754;20.158;2023-04-23T02:44:10;96344.52;;;9.33;55.21
34065;BME280;20339;49.754;20.158;2023-04-23T02:46:40;96339.70;;;9.32;55.26
34065;BME280;20339;49.754;20.158;2023-04-23T02:49:11;96340.11;;;9.34;55.42
34065;BME280;20339;49.754;20.158;2023-04-23T02:51:43;96341.91;;;9.33;55.39
34065;BME280;20339;49.754;20.158;2023-04-23T02:54:14;96340.73;;;9.31;55.29
34065;BME280;20339;49.754;20.158;2023-04-23T02:56:45;96343.95;;;9.29;55.42
34065;BME280;20339;49.754;20.158;2023-04-23T02:59:15;96345.48;;;9.28;55.46
34065;BME280;20339;49.754;20.158;2023-04-23T03:01:46;96340.36;;;9.31;55.49
34065;BME280;20339;49.754;20.158;2023-04-23T03:04:17;96347.15;;;9.34;55.58
34065;BME280;20339;49.754;20.158;2023-04-23T03:06:48;96343.88;;;9.33;55.53
34065;BME280;20339;49.754;20.158;2023-04-23T03:09:19;96340.09;;;9.36;55.71
34065;BME280;20339;49.754;20.158;2023-04-23T03:11:50;96340.78;;;9.43;55.78
34065;BME280;20339;49.754;20.158;2023-04-23T03:14:21;96342.06;;;9.40;55.84
34065;BME280;20339;49.754;20.158;2023-04-23T03:16:52;96342.49;;;9.34;55.86
34065;BME280;20339;49.754;20.158;2023-04-23T03:19:23;96340.69;;;9.34;55.86
34065;BME280;20339;49.754;20.158;2023-04-23T03:21:53;96340.43;;;9.39;55.94
34065;BME280;20339;49.754;20.158;2023-04-23T03:24:24;96343.42;;;9.36;56.10
34065;BME280;20339;49.754;20.158;2023-04-23T03:26:55;96341.91;;;9.39;56.09
34065;BME280;20339;49.754;20.158;2023-04-23T03:29:29;96341.97;;;9.47;56.16
34065;BME280;20339;49.754;20.158;2023-04-23T03:31:59;96346.34;;;9.49;56.00
34065;BME280;20339;49.754;20.158;2023-04-23T03:34:30;96342.87;;;9.47;55.99
34065;BME280;20339;49.754;20.158;2023-04-23T03:37:01;96342.16;;;9.48;56.00
34065;BME280;20339;49.754;20.158;2023-04-23T03:39:32;96343.05;;;9.49;56.05
34065;BME280;20339;49.754;20.158;2023-04-23T03:42:03;96342.48;;;9.44;56.08
34065;BME280;20339;49.754;20.158;2023-04-23T03:44:37;96341.42;;;9.40;56.19
34065;BME280;20339;49.754;20.158;2023-04-23T03:47:08;96343.38;;;9.41;56.24
34065;BME280;20339;49.754;20.158;2023-04-23T03:49:39;96343.10;;;9.44;56.27
34065;BME280;20339;49.754;20.158;2023-04-23T03:52:10;96342.77;;;9.46;56.31
34065;BME280;20339;49.754;20.158;2023-04-23T03:54:41;96343.06;;;9.44;56.40
34065;BME280;20339;49.754;20.158;2023-04-23T03:57:12;96348.22;;;9.46;56.55
34065;BME280;20339;49.754;20.158;2023-04-23T03:59:43;96343.04;;;9.46;56.71
34065;BME280;20339;49.754;20.158;2023-04-23T04:02:14;96342.22;;;9.48;56.77
34065;BME280;20339;49.754;20.158;2023-04-23T04:04:45;96346.77;;;9.54;56.93
34065;BME280;20339;49.754;20.158;2023-04-23T04:07:18;96341.56;;;9.64;56.83
34065;BME280;20339;49.754;20.158;2023-04-23T04:09:49;96344.23;;;9.79;56.69
34065;BME280;20339;49.754;20.158;2023-04-23T04:12:22;96340.63;;;9.96;56.34
34065;BME280;20339;49.754;20.158;2023-04-23T04:14:53;96340.77;;;10.06;55.97
34065;BME280;20339;49.754;20.158;2023-04-23T04:17:24;96341.41;;;10.18;55.73
34065;BME280;20339;49.754;20.158;2023-04-23T04:19:55;96342.08;;;10.27;55.54
34065;BME280;20339;49.754;20.158;2023-04-23T04:22:27;96343.64;;;10.38;55.49
34065;BME280;20339;49.754;20.158;2023-04-23T04:24:59;96341.74;;;10.50;55.34
34065;BME280;20339;49.754;20.158;2023-04-23T04:27:30;96333.88;;;10.76;54.62
34065;BME280;20339;49.754;20.158;2023-04-23T04:30:02;96337.73;;;11.53;53.40
34065;BME280;20339;49.754;20.158;2023-04-23T04:32:34;96337.67;;;12.41;52.16
34065;BME280;20339;49.754;20.158;2023-04-23T04:35:08;96335.04;;;12.94;50.25
34065;BME280;20339;49.754;20.158;2023-04-23T04:37:41;96344.45;;;13.32;49.32
34065;BME280;20339;49.754;20.158;2023-04-23T04:40:13;96344.96;;;13.71;48.73
34065;BME280;20339;49.754;20.158;2023-04-23T04:42:45;96345.58;;;14.23;47.82
34065;BME280;20339;49.754;20.158;2023-04-23T04:45:16;96348.23;;;14.61;47.06
34065;BME280;20339;49.754;20.158;2023-04-23T04:47:46;96342.48;;;15.07;46.22
34065;BME280;20339;49.754;20.158;2023-04-23T04:50:20;96346.48;;;15.44;45.07
34065;BME280;20339;49.754;20.158;2023-04-23T04:52:52;96345.55;;;15.90;44.70
34065;BME280;20339;49.754;20.158;2023-04-23T04:55:23;96343.76;;;16.20;43.51
34065;BME280;20339;49.754;20.158;2023-04-23T04:57:54;96349.62;;;16.46;43.45
34065;BME280;20339;49.754;20.158;2023-04-23T05:00:26;96344.26;;;16.72;41.97
34065;BME280;20339;49.754;20.158;2023-04-23T05:02:59;96348.48;;;16.73;41.63
34065;BME280;20339;49.754;20.158;2023-04-23T05:05:31;96348.02;;;16.82;41.29
34065;BME280;20339;49.754;20.158;2023-04-23T05:08:02;96345.73;;;17.09;41.28
34065;BME280;20339;49.754;20.158;2023-04-23T05:10:33;96341.21;;;17.32;40.26
34065;BME280;20339;49.754;20.158;2023-04-23T05:13:04;96343.67;;;17.62;40.51
34065;BME280;20339;49.754;20.158;2023-04-23T05:15:35;96337.07;;;17.99;39.84
34065;BME280;20339;49.754;20.158;2023-04-23T05:18:10;96341.09;;;18.30;38.88
34065;BME280;20339;49.754;20.158;2023-04-23T05:20:41;96335.48;;;18.41;38.46
34065;BME280;20339;49.754;20.158;2023-04-23T05:23:12;96337.77;;;18.70;37.88
34065;BME280;20339;49.754;20.158;2023-04-23T05:25:43;96338.42;;;19.12;38.28
34065;BME280;20339;49.754;20.158;2023-04-23T05:28:14;96336.71;;;19.87;37.76
34065;BME280;20339;49.754;20.158;2023-04-23T05:30:45;96336.11;;;20.40;36.81
34065;BME280;20339;49.754;20.158;2023-04-23T05:33:16;96332.84;;;20.83;35.84
34065;BME280;20339;49.754;20.158;2023-04-23T05:35:47;96331.21;;;21.07;35.42
34065;BME280;20339;49.754;20.158;2023-04-23T05:38:18;96332.94;;;20.98;35.09
34065;BME280;20339;49.754;20.158;2023-04-23T05:40:50;96330.84;;;21.24;34.49
34065;BME280;20339;49.754;20.158;2023-04-23T05:43:21;96330.62;;;21.28;34.18
34065;BME280;20339;49.754;20.158;2023-04-23T05:45:54;96330.98;;;20.54;33.86
34065;BME280;20339;49.754;20.158;2023-04-23T05:48:25;96336.54;;;19.16;35.44
34065;BME280;20339;49.754;20.158;2023-04-23T05:50:56;96333.68;;;18.08;36.64
34065;BME280;20339;49.754;20.158;2023-04-23T05:53:28;96335.45;;;17.40;38.19
34065;BME280;20339;49.754;20.158;2023-04-23T05:55:59;96334.96;;;17.61;38.88
34065;BME280;20339;49.754;20.158;2023-04-23T05:58:30;96340.39;;;18.70;38.44
34065;BME280;20339;49.754;20.158;2023-04-23T06:01:02;96339.33;;;20.24;37.16
34065;BME280;20339;49.754;20.158;2023-04-23T06:03:33;96337.26;;;21.45;35.15
34065;BME280;20339;49.754;20.158;2023-04-23T06:06:06;96336.98;;;21.65;33.76
34065;BME280;20339;49.754;20.158;2023-04-23T06:08:37;96336.36;;;20.54;34.03
34065;BME280;20339;49.754;20.158;2023-04-23T06:11:08;96344.39;;;19.14;35.70
34065;BME280;20339;49.754;20.158;2023-04-23T06:13:41;96351.76;;;18.59;36.72
34065;BME280;20339;49.754;20.158;2023-04-23T06:16:14;96349.98;;;18.30;37.50
34065;BME280;20339;49.754;20.158;2023-04-23T06:18:45;96344.89;;;19.59;37.60
34065;BME280;20339;49.754;20.158;2023-04-23T06:21:18;96346.39;;;21.34;36.07
34065;BME280;20339;49.754;20.158;2023-04-23T06:23:50;96343.61;;;22.91;34.68
34065;BME280;20339;49.754;20.158;2023-04-23T06:26:21;96349.48;;;23.98;32.79
34065;BME280;20339;49.754;20.158;2023-04-23T06:28:52;96343.75;;;24.45;31.88
34065;BME280;20339;49.754;20.158;2023-04-23T06:31:26;96345.55;;;24.76;30.73
34065;BME280;20339;49.754;20.158;2023-04-23T06:33:58;96345.37;;;24.73;30.20
34065;BME280;20339;49.754;20.158;2023-04-23T06:36:29;96342.45;;;24.54;30.04
34065;BME280;20339;49.754;20.158;2023-04-23T06:39:01;96344.95;;;24.80;30.31
34065;BME280;20339;49.754;20.158;2023-04-23T06:41:32;96343.58;;;25.45;29.74
34065;BME280;20339;49.754;20.158;2023-04-23T06:44:03;96345.33;;;26.30;29.39
34065;BME280;20339;49.754;20.158;2023-04-23T06:46:35;96346.58;;;27.04;27.98
34065;BME280;20339;49.754;20.158;2023-04-23T06:49:07;96342.67;;;27.43;27.42
34065;BME280;20339;49.754;20.158;2023-04-23T06:51:39;96342.23;;;27.97;26.91
34065;BME280;20339;49.754;20.158;2023-04-23T06:54:13;96344.04;;;28.56;26.71
34065;BME280;20339;49.754;20.158;2023-04-23T06:56:44;96340.16;;;28.84;25.52
34065;BME280;20339;49.754;20.158;2023-04-23T06:59:16;96338.25;;;28.59;25.12
34065;BME280;20339;49.754;20.158;2023-04-23T07:01:48;96336.77;;;28.88;25.74
34065;BME280;20339;49.754;20.158;2023-04-23T07:04:21;96330.78;;;29.40;25.23
34065;BME280;20339;49.754;20.158;2023-04-23T07:06:52;96332.64;;;29.69;24.80
34065;BME280;20339;49.754;20.158;2023-04-23T07:09:23;96331.82;;;30.08;24.14
34065;BME280;20339;49.754;20.158;2023-04-23T07:11:55;96332.61;;;30.65;24.30
34065;BME280;20339;49.754;20.158;2023-04-23T07:14:27;96334.08;;;30.86;23.41
34065;BME280;20339;49.754;20.158;2023-04-23T07:17:00;96329.66;;;30.88;23.64
34065;BME280;20339;49.754;20.158;2023-04-23T07:19:32;96330.12;;;30.97;23.83
34065;BME280;20339;49.754;20.158;2023-04-23T07:22:03;96335.65;;;31.25;23.34
34065;BME280;20339;49.754;20.158;2023-04-23T07:24:35;96329.52;;;31.47;23.56
34065;BME280;20339;49.754;20.158;2023-04-23T07:27:07;96332.93;;;31.80;22.90
34065;BME280;20339;49.754;20.158;2023-04-23T07:29:39;96331.16;;;32.11;22.90
34065;BME280;20339;49.754;20.158;2023-04-23T07:32:10;96334.91;;;32.70;22.76
34065;BME280;20339;49.754;20.158;2023-04-23T07:34:42;96333.19;;;33.28;22.06
34065;BME280;20339;49.754;20.158;2023-04-23T07:37:13;96326.56;;;33.47;21.64
34065;BME280;20339;49.754;20.158;2023-04-23T07:39:46;96329.41;;;33.60;21.45
34065;BME280;20339;49.754;20.158;2023-04-23T07:42:17;96333.02;;;32.95;20.91
34065;BME280;20339;49.754;20.158;2023-04-23T07:44:48;96329.16;;;33.14;21.24
34065;BME280;20339;49.754;20.158;2023-04-23T07:47:19;96328.24;;;33.01;21.07
34065;BME280;20339;49.754;20.158;2023-04-23T07:49:50;96327.34;;;33.20;21.63
34065;BME280;20339;49.754;20.158;2023-04-23T07:52:22;96327.27;;;32.95;20.66
34065;BME280;20339;49.754;20.158;2023-04-23T07:54:53;96333.45;;;32.35;20.24
34065;BME280;20339;49.754;20.158;2023-04-23T07:57:25;96328.89;;;31.86;20.41
34065;BME280;20339;49.754;20.158;2023-04-23T07:59:57;96324.86;;;32.36;21.34
34065;BME280;20339;49.754;20.158;2023-04-23T08:02:28;96322.61;;;33.13;20.52
34065;BME280;20339;49.754;20.158;2023-04-23T08:05:00;96325.48;;;32.85;19.78
34065;BME280;20339;49.754;20.158;2023-04-23T08:07:32;96325.47;;;32.97;20.08
34065;BME280;20339;49.754;20.158;2023-04-23T08:10:09;96323.77;;;33.14;20.31
34065;BME280;20339;49.754;20.158;2023-04-23T08:12:40;96321.42;;;32.39;19.13
34065;BME280;20339;49.754;20.158;2023-04-23T08:15:12;96314.02;;;30.86;19.37
34065;BME280;20339;49.754;20.158;2023-04-23T08:17:43;96315.14;;;29.75;20.13
34065;BME280;20339;49.754;20.158;2023-04-23T08:20:15;96308.83;;;28.73;21.05
34065;BME280;20339;49.754;20.158;2023-04-23T08:22:46;96313.92;;;28.31;21.61
34065;BME280;20339;49.754;20.158;2023-04-23T08:25:19;96314.77;;;28.43;21.94
34065;BME280;20339;49.754;20.158;2023-04-23T08:27:50;96313.55;;;29.02;21.73
34065;BME280;20339;49.754;20.158;2023-04-23T08:30:22;96308.64;;;29.89;21.66
34065;BME280;20339;49.754;20.158;2023-04-23T08:32:53;96304.06;;;30.30;20.78
34065;BME280;20339;49.754;20.158;2023-04-23T08:35:25;96302.52;;;29.97;20.44
34065;BME280;20339;49.754;20.158;2023-04-23T08:37:56;96299.45;;;29.65;20.94
34065;BME280;20339;49.754;20.158;2023-04-23T08:40:30;96294.77;;;30.77;21.14
34065;BME280;20339;49.754;20.158;2023-04-23T08:43:05;96292.96;;;31.27;19.44
34065;BME280;20339;49.754;20.158;2023-04-23T08:45:40;96285.15;;;30.51;19.40
34065;BME280;20339;49.754;20.158;2023-04-23T08:48:14;96281.23;;;29.87;19.29
34065;BME280;20339;49.754;20.158;2023-04-23T08:50:46;96285.91;;;28.90;20.63
34065;BME280;20339;49.754;20.158;2023-04-23T08:53:21;96283.47;;;29.21;21.12
34065;BME280;20339;49.754;20.158;2023-04-23T08:55:57;96276.79;;;29.26;20.34
34065;BME280;20339;49.754;20.158;2023-04-23T08:58:29;96278.73;;;28.91;20.78
34065;BME280;20339;49.754;20.158;2023-04-23T09:01:01;96271.59;;;28.88;21.09
34065;BME280;20339;49.754;20.158;2023-04-23T09:03:33;96272.55;;;28.91;21.25
34065;BME280;20339;49.754;20.158;2023-04-23T09:06:05;96269.43;;;28.77;21.05
34065;BME280;20339;49.754;20.158;2023-04-23T09:08:37;96265.05;;;27.98;20.17
34065;BME280;20339;49.754;20.158;2023-04-23T09:11:09;96269.75;;;26.71;21.60
34065;BME280;20339;49.754;20.158;2023-04-23T09:13:40;96269.59;;;26.75;22.24
34065;BME280;20339;49.754;20.158;2023-04-23T09:16:11;96269.90;;;26.77;22.19
34065;BME280;20339;49.754;20.158;2023-04-23T09:18:43;96264.66;;;26.55;21.94
34065;BME280;20339;49.754;20.158;2023-04-23T09:21:14;96261.23;;;26.47;22.42
34065;BME280;20339;49.754;20.158;2023-04-23T09:23:50;96259.76;;;24.70;23.20
34065;BME280;20339;49.754;20.158;2023-04-23T09:26:22;96273.67;;;23.04;25.04
34065;BME280;20339;49.754;20.158;2023-04-23T09:28:54;96264.38;;;22.90;25.87
34065;BME280;20339;49.754;20.158;2023-04-23T09:31:25;96269.88;;;22.51;24.98
34065;BME280;20339;49.754;20.158;2023-04-23T09:33:56;96262.11;;;22.31;25.95
34065;BME280;20339;49.754;20.158;2023-04-23T09:36:28;96261.42;;;22.08;26.73
34065;BME280;20339;49.754;20.158;2023-04-23T09:39:12;96258.55;;;21.72;26.51
34065;BME280;20339;49.754;20.158;2023-04-23T09:41:43;96251.45;;;21.50;26.97
34065;BME280;20339;49.754;20.158;2023-04-23T09:44:20;96251.66;;;21.28;27.45
34065;BME280;20339;49.754;20.158;2023-04-23T09:46:52;96249.85;;;21.21;27.93
34065;BME280;20339;49.754;20.158;2023-04-23T09:49:23;96249.57;;;21.03;28.41
34065;BME280;20339;49.754;20.158;2023-04-23T09:51:57;96252.34;;;21.06;28.31
34065;BME280;20339;49.754;20.158;2023-04-23T09:54:35;96247.86;;;21.17;28.51
34065;BME280;20339;49.754;20.158;2023-04-23T09:57:09;96253.71;;;21.21;28.29
34065;BME280;20339;49.754;20.158;2023-04-23T09:59:41;96253.23;;;21.24;28.13
34065;BME280;20339;49.754;20.158;2023-04-23T10:02:12;96250.31;;;21.20;27.63
34065;BME280;20339;49.754;20.158;2023-04-23T10:04:44;96244.38;;;21.31;27.64
34065;BME280;20339;49.754;20.158;2023-04-23T10:07:21;96234.08;;;21.57;27.21
34065;BME280;20339;49.754;20.158;2023-04-23T10:09:52;96237.05;;;21.50;27.69
34065;BME280;20339;49.754;20.158;2023-04-23T10:12:26;96234.13;;;21.77;27.67
34065;BME280;20339;49.754;20.158;2023-04-23T10:14:58;96228.73;;;21.86;27.65
34065;BME280;20339;49.754;20.158;2023-04-23T10:17:29;96223.71;;;21.76;27.53
34065;BME280;20339;49.754;20.158;2023-04-23T10:20:05;96216.54;;;21.41;27.24
34065;BME280;20339;49.754;20.158;2023-04-23T10:22:42;96211.77;;;21.07;27.87
34065;BME280;20339;49.754;20.158;2023-04-23T10:25:15;96214.80;;;21.24;28.58
34065;BME280;20339;49.754;20.158;2023-04-23T10:27:50;96216.06;;;21.50;28.15
34065;BME280;20339;49.754;20.158;2023-04-23T10:30:22;96217.75;;;21.41;28.27
34065;BME280;20339;49.754;20.158;2023-04-23T10:32:54;96217.46;;;21.29;28.19
34065;BME280;20339;49.754;20.158;2023-04-23T10:35:27;96216.26;;;21.26;28.63
34065;BME280;20339;49.754;20.158;2023-04-23T10:37:59;96207.73;;;21.27;28.79
34065;BME280;20339;49.754;20.158;2023-04-23T10:40:34;96208.09;;;21.39;28.68
34065;BME280;20339;49.754;20.158;2023-04-23T10:43:07;96199.98;;;21.38;28.30
34065;BME280;20339;49.754;20.158;2023-04-23T10:45:39;96206.17;;;21.36;28.26
34065;BME280;20339;49.754;20.158;2023-04-23T10:48:10;96198.60;;;21.65;28.42
34065;BME280;20339;49.754;20.158;2023-04-23T10:50:42;96197.46;;;21.88;28.09
34065;BME280;20339;49.754;20.158;2023-04-23T10:53:20;96188.48;;;21.78;28.00
34065;BME280;20339;49.754;20.158;2023-04-23T10:56:05;96187.27;;;21.74;28.34
34065;BME280;20339;49.754;20.158;2023-04-23T10:58:50;96194.08;;;21.76;28.21
34065;BME280;20339;49.754;20.158;2023-04-23T11:01:24;96196.33;;;21.77;28.30
34065;BME280;20339;49.754;20.158;2023-04-23T11:03:56;96198.21;;;21.72;27.97
34065;BME280;20339;49.754;20.158;2023-04-23T11:06:52;96207.93;;;21.56;27.74
34065;BME280;20339;49.754;20.158;2023-04-23T11:09:35;96199.58;;;21.58;27.72
34065;BME280;20339;49.754;20.158;2023-04-23T11:12:09;96196.34;;;21.67;27.83
34065;BME280;20339;49.754;20.158;2023-04-23T11:14:47;96197.48;;;21.76;28.10
34065;BME280;20339;49.754;20.158;2023-04-23T11:17:23;96196.83;;;21.87;27.87
34065;BME280;20339;49.754;20.158;2023-04-23T11:20:11;96200.83;;;22.01;27.86
34065;BME280;20339;49.754;20.158;2023-04-23T11:22:46;96192.29;;;21.93;26.74
34065;BME280;20339;49.754;20.158;2023-04-23T11:25:21;96187.86;;;21.77;27.50
34065;BME280;20339;49.754;20.158;2023-04-23T11:27:54;96179.35;;;21.52;27.60
34065;BME280;20339;49.754;20.158;2023-04-23T11:30:28;96177.55;;;21.74;28.25
34065;BME280;20339;49.754;20.158;2023-04-23T11:33:02;96172.00;;;21.78;28.23
34065;BME280;20339;49.754;20.158;2023-04-23T11:35:36;96172.50;;;21.95;27.89
34065;BME280;20339;49.754;20.158;2023-04-23T11:38:10;96165.37;;;21.83;28.32
34065;BME280;20339;49.754;20.158;2023-04-23T11:40:41;96161.15;;;21.84;29.14
34065;BME280;20339;49.754;20.158;2023-04-23T11:43:20;96164.55;;;21.75;28.28
34065;BME280;20339;49.754;20.158;2023-04-23T11:45:53;96161.33;;;21.91;29.31
34065;BME280;20339;49.754;20.158;2023-04-23T11:48:27;96157.55;;;22.20;29.09
34065;BME280;20339;49.754;20.158;2023-04-23T11:50:58;96162.23;;;22.35;27.97
34065;BME280;20339;49.754;20.158;2023-04-23T11:53:30;96169.30;;;22.32;27.98
34065;BME280;20339;49.754;20.158;2023-04-23T11:56:01;96164.98;;;22.38;27.75
34065;BME280;20339;49.754;20.158;2023-04-23T11:58:34;96160.79;;;22.36;27.43
34065;BME280;20339;49.754;20.158;2023-04-23T12:01:05;96159.02;;;22.41;27.43
34065;BME280;20339;49.754;20.158;2023-04-23T12:03:36;96158.56;;;22.32;27.75
34065;BME280;20339;49.754;20.158;2023-04-23T12:06:08;96161.48;;;22.19;28.29
34065;BME280;20339;49.754;20.158;2023-04-23T12:08:39;96159.79;;;22.13;28.00
34065;BME280;20339;49.754;20.158;2023-04-23T12:11:12;96153.87;;;22.15;27.83
34065;BME280;20339;49.754;20.158;2023-04-23T12:13:46;96150.63;;;22.15;27.73
34065;BME280;20339;49.754;20.158;2023-04-23T12:16:18;96146.89;;;22.09;27.71
34065;BME280;20339;49.754;20.158;2023-04-23T12:19:06;96141.34;;;22.05;28.24
34065;BME280;20339;49.754;20.158;2023-04-23T12:21:47;96143.67;;;22.05;28.13
34065;BME280;20339;49.754;20.158;2023-04-23T12:24:19;96137.64;;;22.00;28.06
34065;BME280;20339;49.754;20.158;2023-04-23T12:26:55;96134.91;;;21.87;28.85
34065;BME280;20339;49.754;20.158;2023-04-23T12:29:28;96138.66;;;22.01;28.70
34065;BME280;20339;49.754;20.158;2023-04-23T12:32:01;96139.95;;;22.05;28.45
34065;BME280;20339;49.754;20.158;2023-04-23T12:34:35;96138.41;;;22.04;28.24
34065;BME280;20339;49.754;20.158;2023-04-23T12:37:07;96140.70;;;21.83;27.73
34065;BME280;20339;49.754;20.158;2023-04-23T12:39:39;96134.31;;;21.59;28.34
34065;BME280;20339;49.754;20.158;2023-04-23T12:42:10;96130.97;;;21.44;28.18
34065;BME280;20339;49.754;20.158;2023-04-23T12:44:43;96125.86;;;21.17;28.12
34065;BME280;20339;49.754;20.158;2023-04-23T12:47:16;96121.52;;;21.32;28.97
34065;BME280;20339;49.754;20.158;2023-04-23T12:49:49;96118.40;;;21.43;28.29
34065;BME280;20339;49.754;20.158;2023-04-23T12:52:21;96114.25;;;21.43;28.66
34065;BME280;20339;49.754;20.158;2023-04-23T12:54:55;96106.86;;;21.59;28.84
34065;BME280;20339;49.754;20.158;2023-04-23T12:57:28;96101.04;;;21.81;28.67
34065;BME280;20339;49.754;20.158;2023-04-23T12:59:59;96112.35;;;21.79;27.89
34065;BME280;20339;49.754;20.158;2023-04-23T13:02:31;96107.95;;;21.55;27.77
34065;BME280;20339;49.754;20.158;2023-04-23T13:05:03;96108.48;;;21.44;28.14
34065;BME280;20339;49.754;20.158;2023-04-23T13:07:34;96105.66;;;21.51;28.47
34065;BME280;20339;49.754;20.158;2023-04-23T13:10:07;96102.61;;;21.68;28.50
34065;BME280;20339;49.754;20.158;2023-04-23T13:12:39;96099.73;;;21.76;27.95
34065;BME280;20339;49.754;20.158;2023-04-23T13:15:12;96097.00;;;21.54;27.33
34065;BME280;20339;49.754;20.158;2023-04-23T13:17:46;96098.26;;;21.15;27.64
34065;BME280;20339;49.754;20.158;2023-04-23T13:20:18;96094.90;;;20.99;28.14